Time;durP1;ratioP1;P1;durP2;ratioP2;P2;SDS_P1;SDS_P2;PMS_P1;PMS_P2;Temp;Humidity;BMP_temperature;BMP_pressure;BME280_temperature;BME280_humidity;BME280_pressure;Samples;Min_cycle;Max_cycle;Signal;HPM_P1;HPM_P2
2022/11/12 00:00:22;;;;;;;13.50;6.07;;;;;;;;;;5077571;28;20116;-79
2022/11/12 00:02:48;;;;;;;11.77;6.05;;;;;;;;;;5093893;28;20044;-78
2022/11/12 00:05:15;;;;;;;13.65;6.40;;;;;;;;;;5085527;28;20068;-79
2022/11/12 00:07:41;;;;;;;13.23;6.88;;;;;;;;;;5095320;28;20051;-78
2022/11/12 00:10:08;;;;;;;13.27;7.20;;;;;;;;;;5094026;28;20048;-80
2022/11/12 00:12:34;;;;;;;13.52;6.25;;;;;;;;;;5093429;28;20052;-79
2022/11/12 00:15:01;;;;;;;14.18;6.22;;;;;;;;;;5085449;28;20048;-80
2022/11/12 00:17:27;;;;;;;15.95;6.93;;;;;;;;;;5100146;28;20490;-80
2022/11/12 00:19:54;;;;;;;14.98;6.88;;;;;;;;;;5093852;28;20093;-80
2022/11/12 00:22:23;;;;;;;11.98;6.50;;;;;;;;;;5074845;28;20060;-79
2022/11/12 00:24:49;;;;;;;11.90;6.47;;;;;;;;;;5075231;28;20052;-80
2022/11/12 00:27:16;;;;;;;12.15;6.57;;;;;;;;;;5093692;28;20048;-80
2022/11/12 00:29:43;;;;;;;10.07;5.85;;;;;;;;;;5093334;28;20404;-80
2022/11/12 00:32:10;;;;;;;12.38;6.95;;;;;;;;;;5092846;28;20131;-79
2022/11/12 00:34:36;;;;;;;12.25;6.35;;;;;;;;;;5093056;28;20130;-80
2022/11/12 00:37:03;;;;;;;14.82;6.63;;;;;;;;;;5075650;28;20044;-80
2022/11/12 00:39:30;;;;;;;12.25;5.65;;;;;;;;;;5092374;28;20054;-80
2022/11/12 00:41:56;;;;;;;13.00;6.32;;;;;;;;;;5091926;28;20051;-80
2022/11/12 00:44:22;;;;;;;13.43;6.50;;;;;;;;;;5092460;28;20048;-80
2022/11/12 00:46:49;;;;;;;14.73;7.20;;;;;;;;;;5094250;28;20135;-81
2022/11/12 00:49:15;;;;;;;10.73;6.25;;;;;;;;;;5101257;28;20038;-80
2022/11/12 00:51:42;;;;;;;12.63;5.93;;;;;;;;;;5109179;28;20074;-79
2022/11/12 00:54:08;;;;;;;13.65;6.10;;;;;;;;;;5077875;28;20044;-79
2022/11/12 00:56:35;;;;;;;12.73;6.60;;;;;;;;;;5096129;28;20143;-78
2022/11/12 00:59:01;;;;;;;12.32;6.00;;;;;;;;;;5099400;28;20049;-79
2022/11/12 01:01:28;;;;;;;13.45;6.15;;;;;;;;;;5098203;28;20050;-79
2022/11/12 01:03:56;;;;;;;14.90;6.13;;;;;;;;;;5097064;28;20087;-79
2022/11/12 01:06:23;;;;;;;12.77;6.63;;;;;;;;;;5101208;28;20052;-79
2022/11/12 01:08:49;;;;;;;12.77;6.53;;;;;;;;;;5100559;28;20228;-79
2022/11/12 01:11:18;;;;;;;10.38;6.22;;;;;;;;;;5103036;28;20048;-79
2022/11/12 01:13:45;;;;;;;10.60;5.72;;;;;;;;;;5098721;28;20136;-80
2022/11/12 01:16:12;;;;;;;11.52;6.03;;;;;;;;;;5093706;28;20052;-79
2022/11/12 01:18:38;;;;;;;12.93;5.75;;;;;;;;;;5092788;28;20044;-81
2022/11/12 01:21:06;;;;;;;12.02;5.50;;;;;;;;;;5091661;28;20054;-80
2022/11/12 01:23:36;;;;;;;14.20;5.88;;;;;;;;;;5091650;28;20054;-80
2022/11/12 01:26:06;;;;;;;12.95;6.35;;;;;;;;;;5092004;28;20491;-80
2022/11/12 01:28:32;;;;;;;12.00;6.15;;;;;;;;;;5092340;28;20054;-80
2022/11/12 01:31:11;;;;;;;12.20;5.95;;;;;;;;;;5092912;28;20044;-80
2022/11/12 01:33:38;;;;;;;11.65;5.80;;;;;;;;;;5090173;28;20051;-80
2022/11/12 01:36:05;;;;;;;10.20;5.40;;;;;;;;;;5092394;28;20048;-79
2022/11/12 01:38:35;;;;;;;12.68;5.82;;;;;;;;;;5092548;28;20095;-80
2022/11/12 01:41:02;;;;;;;10.82;5.90;;;;;;;;;;5091246;28;20432;-80
2022/11/12 01:43:28;;;;;;;12.02;6.05;;;;;;;;;;5090450;28;20044;-80
2022/11/12 01:45:55;;;;;;;12.63;6.15;;;;;;;;;;5091732;28;20140;-80
2022/11/12 01:48:27;;;;;;;12.60;5.88;;;;;;;;;;5091732;28;20111;-81
2022/11/12 01:50:55;;;;;;;14.05;6.20;;;;;;;;;;5090408;28;20633;-80
2022/11/12 01:53:31;;;;;;;12.25;6.13;;;;;;;;;;5089287;28;20135;-80
2022/11/12 01:55:59;;;;;;;10.65;5.78;;;;;;;;;;5091552;28;20064;-79
2022/11/12 01:58:28;;;;;;;10.27;5.55;;;;;;;;;;5091492;28;20067;-80
2022/11/12 02:00:55;;;;;;;14.63;5.65;;;;;;;;;;5091659;28;20082;-80
2022/11/12 02:03:23;;;;;;;13.05;5.65;;;;;;;;;;5090093;28;20055;-80
2022/11/12 02:06:06;;;;;;;12.13;5.63;;;;;;;;;;5093431;28;20043;-80
2022/11/12 02:08:34;;;;;;;9.13;5.45;;;;;;;;;;5096425;28;20135;-79
2022/11/12 02:11:11;;;;;;;13.90;6.30;;;;;;;;;;5096309;28;20131;-80
2022/11/12 02:16:31;;;;;;;8.88;4.60;;;;;;;;;;5096242;28;20044;-79
2022/11/12 02:18:58;;;;;;;9.48;5.20;;;;;;;;;;5097580;28;20506;-80
2022/11/12 02:21:24;;;;;;;10.07;4.95;;;;;;;;;;5097118;28;20048;-79
2022/11/12 02:24:03;;;;;;;11.38;4.88;;;;;;;;;;5096159;28;20147;-80
2022/11/12 02:26:34;;;;;;;9.88;4.95;;;;;;;;;;5096575;28;20143;-80
2022/11/12 02:29:00;;;;;;;8.63;4.82;;;;;;;;;;5096916;28;20059;-80
2022/11/12 02:31:27;;;;;;;11.07;5.00;;;;;;;;;;5096965;28;20048;-80
2022/11/12 02:33:53;;;;;;;11.98;5.68;;;;;;;;;;5091169;28;20103;-80
2022/11/12 02:36:20;;;;;;;9.82;5.30;;;;;;;;;;5079111;28;20461;-79
2022/11/12 02:38:47;;;;;;;9.57;5.03;;;;;;;;;;5102962;28;20059;-79
2022/11/12 02:41:13;;;;;;;12.75;4.88;;;;;;;;;;5118221;28;20248;-79
2022/11/12 02:43:40;;;;;;;9.27;5.18;;;;;;;;;;5116445;28;20023;-80
2022/11/12 02:46:06;;;;;;;9.10;4.75;;;;;;;;;;5111256;28;20086;-78
2022/11/12 02:48:33;;;;;;;13.60;5.72;;;;;;;;;;5078165;28;20048;-79
2022/11/12 02:50:59;;;;;;;9.32;4.93;;;;;;;;;;5102906;28;20063;-79
2022/11/12 02:53:26;;;;;;;8.40;4.50;;;;;;;;;;5111724;28;20044;-78
2022/11/12 02:55:52;;;;;;;9.77;4.93;;;;;;;;;;5110426;28;20078;-81
2022/11/12 02:58:21;;;;;;;12.50;5.22;;;;;;;;;;5111393;28;20048;-81
2022/11/12 03:00:48;;;;;;;11.20;4.82;;;;;;;;;;5083684;28;20585;-80
2022/11/12 03:03:15;;;;;;;9.52;5.22;;;;;;;;;;5100116;28;20047;-80
2022/11/12 03:05:41;;;;;;;9.82;4.85;;;;;;;;;;5100499;28;20482;-80
2022/11/12 03:08:08;;;;;;;10.32;5.10;;;;;;;;;;5101656;28;20108;-79
2022/11/12 03:10:39;;;;;;;8.18;4.93;;;;;;;;;;5081983;28;20108;-80
2022/11/12 03:13:05;;;;;;;9.50;4.78;;;;;;;;;;5081824;28;20061;-80
2022/11/12 03:15:31;;;;;;;10.98;4.75;;;;;;;;;;5100657;28;20094;-80
2022/11/12 03:17:58;;;;;;;9.25;4.50;;;;;;;;;;5099362;28;20050;-81
2022/11/12 03:20:25;;;;;;;10.35;5.03;;;;;;;;;;5100512;28;20048;-80
2022/11/12 03:22:59;;;;;;;8.57;4.80;;;;;;;;;;5081516;28;20127;-81
2022/11/12 03:25:26;;;;;;;10.23;4.65;;;;;;;;;;5099886;28;20424;-79
2022/11/12 03:27:59;;;;;;;8.73;4.82;;;;;;;;;;5097454;28;20047;-80
2022/11/12 03:30:27;;;;;;;11.48;4.70;;;;;;;;;;5088606;28;20044;-80
2022/11/12 03:32:53;;;;;;;9.23;4.78;;;;;;;;;;5075530;28;20047;-81
2022/11/12 03:35:20;;;;;;;8.73;4.78;;;;;;;;;;5057412;28;20110;-81
2022/11/12 03:37:46;;;;;;;8.13;4.70;;;;;;;;;;5076793;28;20148;-81
2022/11/12 03:40:13;;;;;;;9.48;4.75;;;;;;;;;;5076027;28;20067;-81
2022/11/12 03:42:46;;;;;;;11.38;4.78;;;;;;;;;;5082515;28;20140;-79
2022/11/12 03:45:13;;;;;;;10.68;4.70;;;;;;;;;;5075926;28;20107;-79
2022/11/12 03:47:43;;;;;;;7.82;4.07;;;;;;;;;;5075422;28;20135;-80
2022/11/12 03:50:11;;;;;;;8.38;4.22;;;;;;;;;;5057723;28;20041;-79
2022/11/12 03:52:37;;;;;;;8.70;4.40;;;;;;;;;;5074984;28;20048;-81
2022/11/12 03:55:04;;;;;;;11.65;4.30;;;;;;;;;;5057943;28;20050;-78
2022/11/12 03:57:31;;;;;;;8.75;4.15;;;;;;;;;;5075120;28;20054;-80
2022/11/12 03:59:57;;;;;;;8.13;4.05;;;;;;;;;;5083021;28;20086;-79
2022/11/12 04:02:25;;;;;;;9.73;3.80;;;;;;;;;;5070479;28;20112;-79
2022/11/12 04:10:23;;;;;;;8.57;4.00;;;;;;;;;;5074328;28;20588;-78
2022/11/12 04:15:35;;;;;;;10.55;3.85;;;;;;;;;;5075442;28;20062;-79
2022/11/12 04:23:32;;;;;;;7.80;4.38;;;;;;;;;;5074940;28;20083;-79
2022/11/12 04:30:14;;;;;;;7.40;4.03;;;;;;;;;;5074857;28;20051;-79
2022/11/12 04:31:30;;;;;;;5.95;3.75;;;;;;;;;;5074604;28;20468;-79
2022/11/12 04:34:27;;;;;;;7.15;3.70;;;;;;;;;;5074358;28;20140;-80
2022/11/12 04:36:42;;;;;;;7.88;3.88;;;;;;;;;;5073951;28;20060;-80
2022/11/12 04:39:09;;;;;;;9.63;3.55;;;;;;;;;;5073909;28;20136;-79
2022/11/12 04:47:05;;;;;;;8.27;3.97;;;;;;;;;;5074936;28;20108;-80
2022/11/12 04:49:32;;;;;;;7.65;3.53;;;;;;;;;;5075559;28;20303;-79
2022/11/12 04:52:04;;;;;;;11.10;3.55;;;;;;;;;;5074554;28;20048;-80
2022/11/12 04:54:31;;;;;;;6.18;3.40;;;;;;;;;;5073753;28;20048;-81
2022/11/12 04:56:58;;;;;;;7.85;3.85;;;;;;;;;;5073691;28;20131;-79
2022/11/12 04:59:25;;;;;;;8.27;3.70;;;;;;;;;;5074050;28;20044;-80
2022/11/12 05:01:51;;;;;;;8.10;3.15;;;;;;;;;;5071758;28;20048;-78
2022/11/12 05:04:18;;;;;;;7.35;3.22;;;;;;;;;;5072641;28;20056;-80
2022/11/12 05:06:50;;;;;;;6.90;3.50;;;;;;;;;;5086229;28;20052;-79
2022/11/12 05:09:20;;;;;;;6.20;3.30;;;;;;;;;;5093809;28;20105;-78
2022/11/12 05:11:47;;;;;;;8.90;3.45;;;;;;;;;;5093051;28;20142;-81
2022/11/12 05:14:13;;;;;;;8.73;3.40;;;;;;;;;;5092767;28;20228;-79
2022/11/12 05:16:40;;;;;;;7.90;3.50;;;;;;;;;;5092590;28;20044;-80
2022/11/12 05:19:06;;;;;;;6.63;3.17;;;;;;;;;;5091325;28;20135;-78
2022/11/12 05:24:18;;;;;;;5.72;3.15;;;;;;;;;;5091556;28;20135;-76
2022/11/12 05:27:06;;;;;;;9.38;2.90;;;;;;;;;;5091830;28;20055;-81
2022/11/12 05:29:32;;;;;;;6.45;3.20;;;;;;;;;;5074187;28;20048;-81
2022/11/12 05:31:59;;;;;;;6.93;3.05;;;;;;;;;;5074498;28;20460;-80
2022/11/12 05:34:25;;;;;;;6.93;3.28;;;;;;;;;;5093578;28;20055;-81
2022/11/12 05:36:52;;;;;;;7.28;3.40;;;;;;;;;;5093435;28;20063;-80
2022/11/12 05:39:18;;;;;;;6.93;3.03;;;;;;;;;;5093069;28;20071;-78
2022/11/12 05:41:45;;;;;;;6.20;2.92;;;;;;;;;;5092666;28;20097;-79
2022/11/12 05:44:31;;;;;;;7.40;3.05;;;;;;;;;;5090736;28;20048;-80
2022/11/12 05:46:58;;;;;;;5.68;2.83;;;;;;;;;;5093868;28;20048;-79
2022/11/12 05:49:24;;;;;;;5.68;2.90;;;;;;;;;;5092987;28;20087;-79
2022/11/12 05:51:51;;;;;;;6.97;3.00;;;;;;;;;;5085840;28;20520;-80
2022/11/12 05:54:17;;;;;;;7.95;2.90;;;;;;;;;;5100066;28;20135;-78
2022/11/12 05:56:44;;;;;;;6.03;3.13;;;;;;;;;;5091332;28;20184;-79
2022/11/12 05:59:11;;;;;;;5.43;2.60;;;;;;;;;;5092922;28;20074;-81
2022/11/12 06:01:42;;;;;;;6.20;2.80;;;;;;;;;;5089085;28;20048;-80
2022/11/12 06:04:10;;;;;;;5.20;3.05;;;;;;;;;;5076528;28;20059;-79
2022/11/12 06:06:37;;;;;;;6.28;2.95;;;;;;;;;;5095897;28;20055;-79
2022/11/12 06:09:04;;;;;;;7.00;3.10;;;;;;;;;;5090325;28;20063;-77
2022/11/12 06:11:31;;;;;;;10.50;3.58;;;;;;;;;;5115618;28;20183;-80
2022/11/12 06:13:57;;;;;;;7.25;3.60;;;;;;;;;;5122200;28;20051;-79
2022/11/12 06:16:23;;;;;;;10.20;3.70;;;;;;;;;;5096634;28;20044;-76
2022/11/12 06:18:50;;;;;;;8.93;3.45;;;;;;;;;;5089594;28;20048;-75
2022/11/12 06:21:21;;;;;;;6.53;3.08;;;;;;;;;;5072306;28;20073;-78
2022/11/12 06:23:49;;;;;;;8.77;4.10;;;;;;;;;;5077298;28;20067;-79
2022/11/12 06:26:15;;;;;;;9.15;3.63;;;;;;;;;;5091734;28;20059;-78
2022/11/12 06:28:42;;;;;;;8.30;3.60;;;;;;;;;;5091188;28;20048;-78
2022/11/12 06:31:08;;;;;;;8.10;3.53;;;;;;;;;;5093854;28;20062;-79
2022/11/12 06:33:34;;;;;;;7.97;3.28;;;;;;;;;;5093731;28;20064;-78
2022/11/12 06:36:05;;;;;;;9.55;3.47;;;;;;;;;;5096348;28;20158;-79
2022/11/12 06:38:32;;;;;;;6.93;3.53;;;;;;;;;;5077591;28;20483;-79
2022/11/12 06:40:59;;;;;;;9.85;3.83;;;;;;;;;;5086762;28;20070;-79
2022/11/12 06:43:27;;;;;;;7.60;3.10;;;;;;;;;;5108347;28;20186;-79
2022/11/12 06:45:57;;;;;;;8.40;3.28;;;;;;;;;;5106620;28;20040;-80
2022/11/12 06:48:23;;;;;;;8.38;3.38;;;;;;;;;;5101201;28;20091;-79
2022/11/12 06:50:50;;;;;;;8.65;3.47;;;;;;;;;;5105827;28;20044;-80
2022/11/12 06:53:16;;;;;;;12.07;3.85;;;;;;;;;;5096219;28;20139;-80
2022/11/12 06:55:43;;;;;;;8.73;4.05;;;;;;;;;;5086674;28;20052;-81
2022/11/12 06:58:09;;;;;;;6.63;3.20;;;;;;;;;;5098902;28;20120;-78
2022/11/12 07:00:36;;;;;;;12.77;3.25;;;;;;;;;;5066496;28;20062;-80
2022/11/12 07:03:09;;;;;;;6.97;3.22;;;;;;;;;;5091478;28;20588;-80
2022/11/12 07:05:38;;;;;;;10.55;3.40;;;;;;;;;;5087287;28;20085;-80
2022/11/12 07:08:05;;;;;;;6.72;3.53;;;;;;;;;;5091248;28;20109;-81
2022/11/12 07:10:31;;;;;;;6.20;3.20;;;;;;;;;;5091119;28;20056;-81
2022/11/12 07:12:58;;;;;;;6.35;3.10;;;;;;;;;;5090553;28;20120;-80
2022/11/12 07:15:24;;;;;;;7.65;2.92;;;;;;;;;;5073946;28;20054;-79
2022/11/12 07:17:50;;;;;;;6.45;3.35;;;;;;;;;;5073328;28;20545;-79
2022/11/12 07:20:17;;;;;;;6.60;3.05;;;;;;;;;;5073681;28;20145;-81
2022/11/12 07:22:44;;;;;;;5.95;3.38;;;;;;;;;;5089183;28;20074;-81
2022/11/12 07:25:10;;;;;;;7.88;3.40;;;;;;;;;;5087646;28;20540;-77
2022/11/12 07:27:36;;;;;;;6.97;3.38;;;;;;;;;;5071669;28;20048;-78
2022/11/12 07:30:03;;;;;;;8.93;3.45;;;;;;;;;;5088655;28;20154;-79
2022/11/12 07:32:29;;;;;;;7.95;4.05;;;;;;;;;;5084963;28;20052;-80
2022/11/12 07:34:56;;;;;;;11.30;4.28;;;;;;;;;;5088658;28;20052;-80
2022/11/12 07:37:22;;;;;;;8.95;4.10;;;;;;;;;;5069433;28;20488;-78
2022/11/12 07:39:49;;;;;;;11.63;4.20;;;;;;;;;;5088934;28;20055;-80
2022/11/12 07:42:15;;;;;;;8.25;3.92;;;;;;;;;;5089532;28;20047;-78
2022/11/12 07:44:42;;;;;;;7.13;3.28;;;;;;;;;;5087393;28;20058;-81
2022/11/12 07:47:08;;;;;;;5.07;2.90;;;;;;;;;;5091475;28;20047;-79
2022/11/12 07:49:35;;;;;;;7.00;3.38;;;;;;;;;;5087469;28;20056;-79
2022/11/12 07:52:01;;;;;;;7.15;3.00;;;;;;;;;;5085702;28;20344;-79
2022/11/12 07:54:27;;;;;;;10.27;3.75;;;;;;;;;;5069129;28;20055;-80
2022/11/12 07:56:54;;;;;;;10.20;3.00;;;;;;;;;;5087754;28;20047;-81
2022/11/12 07:59:20;;;;;;;8.75;3.13;;;;;;;;;;5088428;28;20051;-78
2022/11/12 08:01:47;;;;;;;6.55;3.25;;;;;;;;;;5088893;28;20052;-79
2022/11/12 08:04:13;;;;;;;6.03;3.17;;;;;;;;;;5086395;28;20060;-76
2022/11/12 08:06:40;;;;;;;6.03;3.15;;;;;;;;;;5089689;28;20052;-78
2022/11/12 08:09:07;;;;;;;5.97;2.47;;;;;;;;;;5090330;28;20060;-79
2022/11/12 08:11:33;;;;;;;6.18;2.75;;;;;;;;;;5088634;28;20059;-78
2022/11/12 08:14:00;;;;;;;5.55;2.97;;;;;;;;;;5090802;28;20377;-80
2022/11/12 08:16:26;;;;;;;5.85;2.95;;;;;;;;;;5089138;28;20132;-79
2022/11/12 08:18:53;;;;;;;14.77;6.22;;;;;;;;;;5091252;28;20070;-80
2022/11/12 08:21:19;;;;;;;22.95;12.07;;;;;;;;;;5090431;28;20052;-76
2022/11/12 08:23:46;;;;;;;15.88;7.82;;;;;;;;;;5087174;28;20055;-77
2022/11/12 08:26:13;;;;;;;8.85;4.78;;;;;;;;;;5087083;28;20392;-77
2022/11/12 08:28:40;;;;;;;11.82;5.13;;;;;;;;;;5079107;28;20133;-77
2022/11/12 08:31:08;;;;;;;10.20;3.83;;;;;;;;;;5085935;28;20044;-78
2022/11/12 08:33:35;;;;;;;8.65;3.85;;;;;;;;;;5086734;28;20052;-76
2022/11/12 08:36:05;;;;;;;5.78;3.03;;;;;;;;;;5085864;28;20083;-78
2022/11/12 08:38:34;;;;;;;6.20;3.00;;;;;;;;;;5084968;28;20159;-73
2022/11/12 08:41:01;;;;;;;7.45;2.67;;;;;;;;;;5081179;28;20166;-74
2022/11/12 08:43:28;;;;;;;5.28;2.85;;;;;;;;;;5067256;28;20135;-78
2022/11/12 08:45:56;;;;;;;5.50;2.97;;;;;;;;;;5094495;28;20072;-75
2022/11/12 08:48:22;;;;;;;5.53;2.15;;;;;;;;;;5085309;28;20506;-82
2022/11/12 08:50:49;;;;;;;6.85;2.60;;;;;;;;;;5084838;28;20078;-73
2022/11/12 08:53:15;;;;;;;5.97;2.80;;;;;;;;;;5086859;28;20074;-80
2022/11/12 08:55:42;;;;;;;4.78;2.63;;;;;;;;;;5091385;28;20612;-78
2022/11/12 08:58:09;;;;;;;25.45;12.52;;;;;;;;;;5088036;28;20113;-78
2022/11/12 09:00:37;;;;;;;30.77;13.88;;;;;;;;;;5088483;28;20419;-78
2022/11/12 09:03:05;;;;;;;33.33;12.50;;;;;;;;;;5088845;28;20060;-78
2022/11/12 09:05:34;;;;;;;16.27;8.02;;;;;;;;;;5077218;28;20052;-77
2022/11/12 09:08:02;;;;;;;19.80;8.32;;;;;;;;;;5086718;28;20055;-80
2022/11/12 09:10:28;;;;;;;20.98;10.73;;;;;;;;;;5087987;28;20058;-79
2022/11/12 09:12:55;;;;;;;17.27;8.73;;;;;;;;;;5084401;28;20043;-80
2022/11/12 09:15:22;;;;;;;10.95;5.88;;;;;;;;;;5088498;28;20047;-79
2022/11/12 09:18:04;;;;;;;11.23;5.43;;;;;;;;;;5074187;28;20052;-80
2022/11/12 09:20:31;;;;;;;7.93;3.88;;;;;;;;;;5081475;28;20056;-79
2022/11/12 09:23:01;;;;;;;7.00;3.25;;;;;;;;;;5090287;28;20050;-78
2022/11/12 09:25:28;;;;;;;7.40;2.72;;;;;;;;;;5068736;28;20078;-79
2022/11/12 09:27:55;;;;;;;5.85;2.40;;;;;;;;;;5083734;28;20044;-79
2022/11/12 09:30:21;;;;;;;4.72;2.80;;;;;;;;;;5091224;28;20131;-79
2022/11/12 09:32:48;;;;;;;4.47;2.40;;;;;;;;;;5070785;28;20105;-78
2022/11/12 09:35:15;;;;;;;6.88;2.78;;;;;;;;;;5089843;28;20128;-79
2022/11/12 09:37:41;;;;;;;6.70;2.58;;;;;;;;;;5090011;28;20044;-78
2022/11/12 09:40:14;;;;;;;9.00;3.15;;;;;;;;;;5091716;28;20103;-78
2022/11/12 09:42:43;;;;;;;6.90;3.17;;;;;;;;;;5112573;28;20091;-77
2022/11/12 09:45:17;;;;;;;3.97;2.60;;;;;;;;;;5114615;28;20131;-79
2022/11/12 09:47:45;;;;;;;4.25;2.70;;;;;;;;;;5095723;28;20079;-79
2022/11/12 09:50:19;;;;;;;3.88;2.33;;;;;;;;;;5089107;28;20534;-78
2022/11/12 09:52:47;;;;;;;4.45;2.45;;;;;;;;;;5087785;28;20090;-79
2022/11/12 09:55:13;;;;;;;4.43;2.72;;;;;;;;;;5091450;28;20143;-79
2022/11/12 09:57:40;;;;;;;6.82;2.75;;;;;;;;;;5092544;28;20405;-80
2022/11/12 10:00:24;;;;;;;6.68;2.50;;;;;;;;;;5091710;28;20044;-80
2022/11/12 10:02:51;;;;;;;3.78;2.40;;;;;;;;;;5090382;28;20044;-80
2022/11/12 10:05:20;;;;;;;4.25;2.70;;;;;;;;;;5091400;28;20083;-79
2022/11/12 10:07:56;;;;;;;5.30;2.50;;;;;;;;;;5094745;28;20127;-79
2022/11/12 10:10:22;;;;;;;7.25;2.95;;;;;;;;;;5093938;28;20036;-80
2022/11/12 10:12:49;;;;;;;5.10;2.70;;;;;;;;;;5089941;28;20134;-79
2022/11/12 10:18:15;;;;;;;5.75;2.40;;;;;;;;;;5086372;28;20081;-78
2022/11/12 10:20:50;;;;;;;5.72;2.92;;;;;;;;;;5089490;28;20048;-79
2022/11/12 10:23:19;;;;;;;4.82;2.85;;;;;;;;;;5089317;28;20419;-80
2022/11/12 10:25:48;;;;;;;4.63;2.13;;;;;;;;;;5071704;28;20151;-81
2022/11/12 10:28:20;;;;;;;3.40;2.60;;;;;;;;;;5094798;28;20104;-79
2022/11/12 10:30:46;;;;;;;4.72;2.60;;;;;;;;;;5077216;28;20044;-79
2022/11/12 10:33:13;;;;;;;5.32;2.70;;;;;;;;;;5094244;28;20054;-80
2022/11/12 10:35:40;;;;;;;5.20;3.20;;;;;;;;;;5077114;28;20048;-80
2022/11/12 10:38:11;;;;;;;4.90;2.30;;;;;;;;;;5094056;28;20488;-78
2022/11/12 10:40:40;;;;;;;5.35;2.80;;;;;;;;;;5092016;28;20484;-77
2022/11/12 10:43:16;;;;;;;4.13;2.50;;;;;;;;;;5092184;28;20044;-77
2022/11/12 10:45:43;;;;;;;4.50;2.33;;;;;;;;;;5093342;28;20040;-81
2022/11/12 10:48:20;;;;;;;6.30;2.42;;;;;;;;;;5093973;28;20050;-77
2022/11/12 10:50:52;;;;;;;4.25;2.58;;;;;;;;;;5075519;28;20439;-79
2022/11/12 10:53:31;;;;;;;6.85;2.75;;;;;;;;;;5092667;28;20052;-80
2022/11/12 10:56:02;;;;;;;5.95;2.60;;;;;;;;;;5092607;28;20260;-80
2022/11/12 10:58:29;;;;;;;6.40;2.28;;;;;;;;;;5092580;28;20135;-79
2022/11/12 11:01:00;;;;;;;4.45;1.90;;;;;;;;;;5093922;28;20047;-79
2022/11/12 11:03:26;;;;;;;3.33;2.10;;;;;;;;;;5091196;28;20046;-79
2022/11/12 11:05:52;;;;;;;4.65;2.20;;;;;;;;;;5093112;28;20139;-80
2022/11/12 11:08:36;;;;;;;4.05;2.33;;;;;;;;;;5093491;28;20127;-79
2022/11/12 11:11:15;;;;;;;2.70;1.92;;;;;;;;;;5090826;28;20127;-78
2022/11/12 11:13:43;;;;;;;4.28;1.98;;;;;;;;;;5089749;28;20051;-80
2022/11/12 11:16:11;;;;;;;4.20;2.40;;;;;;;;;;5076629;28;20103;-78
2022/11/12 11:18:40;;;;;;;4.38;2.10;;;;;;;;;;5093676;28;20419;-81
2022/11/12 11:21:12;;;;;;;5.85;2.10;;;;;;;;;;5095413;28;20055;-80
2022/11/12 11:24:01;;;;;;;4.22;2.03;;;;;;;;;;5094311;28;20078;-81
2022/11/12 11:27:00;;;;;;;3.47;2.03;;;;;;;;;;5096103;28;20107;-79
2022/11/12 11:29:29;;;;;;;2.97;1.83;;;;;;;;;;5052796;28;20091;-80
2022/11/12 11:32:14;;;;;;;3.97;2.00;;;;;;;;;;5098665;28;20138;-81
2022/11/12 11:34:53;;;;;;;5.72;3.17;;;;;;;;;;5092542;28;20044;-79
2022/11/12 11:37:25;;;;;;;7.28;2.35;;;;;;;;;;5075318;28;20054;-80
2022/11/12 11:40:01;;;;;;;6.38;2.70;;;;;;;;;;5090945;28;20044;-79
2022/11/12 11:42:27;;;;;;;4.82;2.35;;;;;;;;;;5089115;28;20044;-79
2022/11/12 11:45:13;;;;;;;4.60;2.40;;;;;;;;;;5092962;28;20059;-79
2022/11/12 11:47:42;;;;;;;3.58;2.38;;;;;;;;;;5090267;28;20319;-80
2022/11/12 11:50:27;;;;;;;4.32;2.53;;;;;;;;;;5076107;28;20059;-80
2022/11/12 11:53:14;;;;;;;5.03;2.65;;;;;;;;;;5091623;28;20075;-80
2022/11/12 11:55:43;;;;;;;5.85;2.65;;;;;;;;;;5091800;28;20050;-77
2022/11/12 11:58:10;;;;;;;5.00;2.60;;;;;;;;;;5092451;28;20412;-81
2022/11/12 12:00:59;;;;;;;5.30;2.60;;;;;;;;;;5095858;28;20044;-79
2022/11/12 12:03:36;;;;;;;6.55;3.10;;;;;;;;;;5036631;28;20050;-80
2022/11/12 12:06:23;;;;;;;4.72;2.50;;;;;;;;;;5080769;28;20076;-78
2022/11/12 12:09:05;;;;;;;5.30;2.40;;;;;;;;;;5096573;28;20052;-79
2022/11/12 12:11:35;;;;;;;3.95;2.60;;;;;;;;;;5096510;28;20048;-79
2022/11/12 12:14:25;;;;;;;4.60;2.40;;;;;;;;;;5092302;28;20044;-79
2022/11/12 12:17:02;;;;;;;3.20;2.30;;;;;;;;;;5043264;28;20530;-78
2022/11/12 12:19:47;;;;;;;4.75;2.60;;;;;;;;;;5079171;28;20127;-79
2022/11/12 12:22:34;;;;;;;4.60;2.60;;;;;;;;;;5097940;28;20051;-77
2022/11/12 12:25:10;;;;;;;3.92;2.20;;;;;;;;;;5093389;28;20503;-81
2022/11/12 12:27:42;;;;;;;3.13;1.85;;;;;;;;;;5090954;28;20054;-79
2022/11/12 12:30:28;;;;;;;3.35;2.05;;;;;;;;;;5093056;28;20135;-79
2022/11/12 12:32:54;;;;;;;;;;;;;;;;;;5074482;28;20048;-80
2022/11/12 12:35:27;;;;;;;3.58;2.03;;;;;;;;;;5089587;28;19920;-80
2022/11/12 12:38:10;;;;;;;5.50;2.08;;;;;;;;;;5092583;28;20052;-80
2022/11/12 12:40:42;;;;;;;4.40;2.20;;;;;;;;;;5093467;28;20471;-74
2022/11/12 12:43:11;;;;;;;5.30;1.55;;;;;;;;;;5088906;28;20044;-79
2022/11/12 12:45:45;;;;;;;4.38;1.85;;;;;;;;;;5075400;28;20040;-82
2022/11/12 12:48:31;;;;;;;4.00;1.60;;;;;;;;;;5091034;28;20044;-80
2022/11/12 12:50:58;;;;;;;4.78;1.90;;;;;;;;;;5071438;28;20051;-77
2022/11/12 12:53:28;;;;;;;3.67;1.83;;;;;;;;;;5092353;28;20062;-79
2022/11/12 12:56:17;;;;;;;4.47;1.85;;;;;;;;;;5092686;28;20507;-80
2022/11/12 12:58:47;;;;;;;3.47;1.40;;;;;;;;;;5029562;28;20138;-79
2022/11/12 13:01:20;;;;;;;2.95;1.40;;;;;;;;;;5094277;28;20052;-79
2022/11/12 13:04:02;;;;;;;4.93;1.33;;;;;;;;;;5076378;28;20048;-79
2022/11/12 13:06:29;;;;;;;3.38;1.40;;;;;;;;;;5085548;28;20050;-79
2022/11/12 13:08:59;;;;;;;1.95;1.20;;;;;;;;;;5092377;28;20044;-79
2022/11/12 13:14:30;;;;;;;3.05;1.40;;;;;;;;;;5115208;28;20091;-79
2022/11/12 13:16:59;;;;;;;2.47;1.45;;;;;;;;;;5116958;28;20040;-78
2022/11/12 13:19:27;;;;;;;2.85;1.40;;;;;;;;;;5096907;28;20048;-79
2022/11/12 13:22:12;;;;;;;1.70;1.20;;;;;;;;;;5094109;28;20135;-80
2022/11/12 13:24:57;;;;;;;2.60;1.20;;;;;;;;;;5093830;28;20824;-78
2022/11/12 13:27:39;;;;;;;1.85;0.90;;;;;;;;;;5095116;28;20044;-79
2022/11/12 13:30:11;;;;;;;3.35;1.10;;;;;;;;;;5093070;28;20427;-77
2022/11/12 13:32:43;;;;;;;4.10;1.55;;;;;;;;;;5075082;28;20061;-76
2022/11/12 13:35:19;;;;;;;10.60;3.92;;;;;;;;;;5065068;28;20617;-76
2022/11/12 13:38:03;;;;;;;17.55;5.32;;;;;;;;;;5083610;28;20047;-76
2022/11/12 13:40:29;;;;;;;10.95;4.85;;;;;;;;;;5066434;28;20062;-79
2022/11/12 13:43:08;;;;;;;14.65;5.35;;;;;;;;;;5083976;28;20520;-78
2022/11/12 13:45:55;;;;;;;16.05;5.25;;;;;;;;;;5069424;28;20154;-80
2022/11/12 13:48:22;;;;;;;10.40;4.47;;;;;;;;;;5097286;28;20536;-78
2022/11/12 13:50:54;;;;;;;11.88;4.32;;;;;;;;;;5092347;28;20052;-78
2022/11/12 13:53:25;;;;;;;10.18;3.97;;;;;;;;;;5088474;28;20056;-80
2022/11/12 13:55:52;;;;;;;9.18;3.88;;;;;;;;;;5087959;28;20127;-79
2022/11/12 13:58:26;;;;;;;10.40;4.35;;;;;;;;;;5090694;28;20601;-79
2022/11/12 14:00:54;;;;;;;10.02;4.47;;;;;;;;;;5090070;28;20294;-78
2022/11/12 14:03:21;;;;;;;12.80;3.90;;;;;;;;;;5085163;28;20062;-76
2022/11/12 14:05:49;;;;;;;9.55;3.65;;;;;;;;;;5088072;28;20051;-78
2022/11/12 14:08:44;;;;;;;8.57;4.00;;;;;;;;;;5087332;28;20681;-78
2022/11/12 14:11:17;;;;;;;9.97;3.77;;;;;;;;;;5059417;28;20126;-77
2022/11/12 14:13:49;;;;;;;11.38;3.55;;;;;;;;;;5083318;28;20113;-78
2022/11/12 14:16:36;;;;;;;9.82;3.03;;;;;;;;;;5086233;28;20107;-78
2022/11/12 14:19:21;;;;;;;8.70;2.45;;;;;;;;;;5016967;28;20143;-80
2022/11/12 14:22:09;;;;;;;7.65;3.03;;;;;;;;;;5079204;28;20071;-78
2022/11/12 14:24:36;;;;;;;4.93;1.98;;;;;;;;;;5086183;28;20064;-78
2022/11/12 14:27:02;;;;;;;3.75;1.88;;;;;;;;;;5092583;28;20054;-78
2022/11/12 14:29:29;;;;;;;4.50;1.58;;;;;;;;;;5070568;28;20143;-79
2022/11/12 14:32:01;;;;;;;4.30;1.80;;;;;;;;;;5083163;28;20443;-76
2022/11/12 14:34:28;;;;;;;10.88;2.50;;;;;;;;;;5086274;28;20056;-79
2022/11/12 14:36:56;;;;;;;7.05;2.63;;;;;;;;;;5088075;28;20052;-79
2022/11/12 14:39:24;;;;;;;8.00;2.70;;;;;;;;;;5082757;28;20058;-78
2022/11/12 14:41:51;;;;;;;7.22;3.10;;;;;;;;;;5072887;28;20318;-79
2022/11/12 14:44:20;;;;;;;7.78;3.05;;;;;;;;;;5088628;28;20050;-79
2022/11/12 14:46:50;;;;;;;7.53;2.90;;;;;;;;;;5092282;28;20051;-79
2022/11/12 14:49:20;;;;;;;8.85;3.13;;;;;;;;;;5086916;28;20052;-79
2022/11/12 14:51:49;;;;;;;8.60;2.60;;;;;;;;;;5087412;28;20136;-78
2022/11/12 14:54:24;;;;;;;4.25;2.17;;;;;;;;;;5059048;28;20084;-78
2022/11/12 14:56:51;;;;;;;6.65;2.60;;;;;;;;;;5069592;28;20078;-78
2022/11/12 14:59:17;;;;;;;6.35;2.35;;;;;;;;;;5086533;28;20383;-79
2022/11/12 15:02:07;;;;;;;6.93;2.50;;;;;;;;;;5089338;28;20066;-79
2022/11/12 15:04:57;;;;;;;4.00;2.13;;;;;;;;;;5092158;28;20051;-78
2022/11/12 15:07:24;;;;;;;5.82;2.75;;;;;;;;;;5088656;28;20135;-79
2022/11/12 15:09:51;;;;;;;5.40;2.30;;;;;;;;;;5092005;28;20044;-80
2022/11/12 15:12:24;;;;;;;4.75;2.03;;;;;;;;;;5089491;28;20058;-78
2022/11/12 15:14:52;;;;;;;5.25;1.90;;;;;;;;;;5083326;28;20044;-78
2022/11/12 15:17:29;;;;;;;5.15;1.98;;;;;;;;;;5075248;28;20087;-79
2022/11/12 15:20:11;;;;;;;5.50;2.38;;;;;;;;;;5074856;28;20144;-79
2022/11/12 15:22:38;;;;;;;6.53;2.25;;;;;;;;;;5072883;28;20052;-79
2022/11/12 15:25:11;;;;;;;4.18;2.08;;;;;;;;;;5074512;28;20041;-78
2022/11/12 15:27:42;;;;;;;3.97;2.05;;;;;;;;;;5073555;28;20222;-78